Pagrindinis puslapis
METAR-TAF:

METAR-TAF

Oro uostai :

Stokholmas-Skavsta, Švedija

platuma: 58-47N, ilguma: 016-55E, Aukštis: 43 m

Dabartinis oras

Ataskaita buvo paskelbta 22 minutes, ne 11:50 UTC
Vėjas 8 kt iš Pietų/Pietvakarių
Temperatūra 3°C
Drėgmė 93%
Slėgis 1001 hPa
Matomumas 10 km arba daugiau
Mažai debesys ne aukštis 2000 ft
Su prošvaistėmis ne aukštis 10000 ft

METAR: ESKN 161150Z 20008KT 9999 FEW020 BKN100 03/02 Q1001 R26/290195

Laikas: 13:12 (12:12 UTC)

Prognozė

Ataskaita buvo paskelbta 42 minutes, ne 11:30 UTC
Prognozė galioja nuo 16 metu 12 UTC su 17 metu 12 UTC
Vėjas 10 kt iš Pietvakarių
Matomumas 10 km arba daugiau
Išsisklaidę debesys ne aukštis 2000 ft
Tikimybė 40%
nuo 16 metu 15 UTC su 16 metu 20 UTC
Su prošvaistėmis ne aukštis 1000 ft
lietus

TAF: ESKN 161130Z 1612/1712 22010KT 9999 SCT020 PROB40 1615/1620 RA BKN010

Orai ataskaitas ir orų prognozės (METAR, TAF).

turimą stotys yra geltonos ir raudonos taškus žemėlapyje.

Perkelti pele per norėdami pamatyti stoties vardą.

Tada spustelėkite, norėdami matyti oro stebėjimo ir prognozės.

Norėdami pakeisti žemėlapį: spustelėkite ant žalios mygtukų su juodo kryžiaus žemyn,; žalią mygtuką su brūkšneliu, jei norite nutolinti; arba žalių rodyklių gretimoms žemėlapius.


METAR-TAF: